createdAt,value
2018-11-29T00:00:28.811Z,7.10
2018-11-29T00:02:57.834Z,7.10
2018-11-29T00:05:32.581Z,7.00
2018-11-29T00:08:07.310Z,7.10
2018-11-29T00:10:36.351Z,7.10
2018-11-29T00:13:05.700Z,7.10
2018-11-29T00:15:34.966Z,7.10
2018-11-29T00:18:04.127Z,7.10
2018-11-29T00:20:33.359Z,7.10
2018-11-29T00:23:03.174Z,7.10
2018-11-29T00:25:32.179Z,7.10
2018-11-29T00:28:01.186Z,7.10
2018-11-29T00:30:30.201Z,7.10
2018-11-29T00:32:59.207Z,7.10
2018-11-29T00:35:28.219Z,7.10
2018-11-29T00:37:57.222Z,7.10
2018-11-29T00:40:26.217Z,7.10
2018-11-29T00:42:55.231Z,7.20
2018-11-29T00:45:24.521Z,7.20
2018-11-29T00:47:53.571Z,7.20
2018-11-29T00:50:22.602Z,7.20
2018-11-29T00:52:51.799Z,7.20
2018-11-29T00:55:21.691Z,7.20
2018-11-29T00:57:51.057Z,7.20
2018-11-29T01:00:22.084Z,7.20
2018-11-29T01:02:51.232Z,7.20
2018-11-29T01:05:20.256Z,7.20
2018-11-29T01:07:49.323Z,7.20
2018-11-29T01:10:18.747Z,7.20
2018-11-29T01:12:48.327Z,7.30
2018-11-29T01:15:19.246Z,7.20
2018-11-29T01:17:49.083Z,7.30
2018-11-29T01:20:18.939Z,7.20
2018-11-29T01:22:47.983Z,7.20
2018-11-29T01:25:17.247Z,7.20
2018-11-29T01:27:47.230Z,7.30
2018-11-29T01:30:17.150Z,7.20
2018-11-29T01:32:46.163Z,7.30
2018-11-29T01:35:16.159Z,7.20
2018-11-29T01:37:45.163Z,7.30
2018-11-29T01:40:17.686Z,7.30
2018-11-29T01:42:47.867Z,7.30
2018-11-29T01:45:16.866Z,7.30
2018-11-29T01:47:45.881Z,7.40
2018-11-29T01:50:14.995Z,7.30
2018-11-29T01:52:44.022Z,7.40
2018-11-29T01:55:13.196Z,7.40
2018-11-29T01:57:42.231Z,7.40
2018-11-29T02:00:12.426Z,7.40
2018-11-29T02:02:41.511Z,7.40
2018-11-29T02:05:11.190Z,7.40
2018-11-29T02:07:40.210Z,7.40
2018-11-29T02:10:17.306Z,7.40
2018-11-29T02:12:50.680Z,7.40
2018-11-29T02:15:19.706Z,7.40
2018-11-29T02:17:48.711Z,7.40
2018-11-29T02:20:18.374Z,7.40
2018-11-29T02:22:47.883Z,7.40
2018-11-29T02:25:16.915Z,7.40
2018-11-29T02:27:45.930Z,7.40
2018-11-29T02:30:23.068Z,7.40
2018-11-29T02:32:52.428Z,7.40
2018-11-29T02:35:21.482Z,7.30
2018-11-29T02:37:50.510Z,7.30
2018-11-29T02:40:19.662Z,7.30
2018-11-29T02:42:50.111Z,7.30
2018-11-29T02:45:21.008Z,7.40
2018-11-29T02:47:50.003Z,7.30
2018-11-29T02:50:19.043Z,7.30
2018-11-29T02:52:48.089Z,7.30
2018-11-29T02:55:17.111Z,7.30
2018-11-29T02:57:46.147Z,7.30
2018-11-29T03:00:16.128Z,7.30
2018-11-29T03:02:45.206Z,7.30
2018-11-29T03:05:14.481Z,7.30
2018-11-29T03:07:43.525Z,7.30
2018-11-29T03:10:13.379Z,7.40
2018-11-29T03:12:42.856Z,7.30
2018-11-29T03:15:14.492Z,7.40
2018-11-29T03:17:43.999Z,7.30
2018-11-29T03:20:13.721Z,7.40
2018-11-29T03:22:42.834Z,7.30
2018-11-29T03:25:12.698Z,7.30
2018-11-29T03:27:41.768Z,7.40
2018-11-29T03:30:15.399Z,7.40
2018-11-29T03:32:44.520Z,7.40
2018-11-29T03:35:14.241Z,7.40
2018-11-29T03:37:43.321Z,7.40
2018-11-29T03:40:15.213Z,7.40
2018-11-29T03:42:44.711Z,7.30
2018-11-29T03:45:14.460Z,7.30
2018-11-29T03:47:43.550Z,7.30
2018-11-29T03:50:15.324Z,7.40
2018-11-29T03:52:44.389Z,7.40
2018-11-29T03:55:13.381Z,7.40
2018-11-29T03:57:42.395Z,7.40
2018-11-29T04:00:14.335Z,7.40
2018-11-29T04:02:43.816Z,7.40
2018-11-29T04:05:12.886Z,7.40
2018-11-29T04:07:41.934Z,7.40
2018-11-29T04:10:12.158Z,7.40
2018-11-29T04:12:41.329Z,7.40
2018-11-29T04:15:13.140Z,7.40
2018-11-29T04:17:42.164Z,7.40
2018-11-29T04:20:13.153Z,7.40
2018-11-29T04:22:42.201Z,7.30
2018-11-29T04:25:13.145Z,7.30
2018-11-29T04:27:43.354Z,7.30
2018-11-29T04:30:13.359Z,7.30
2018-11-29T04:32:42.458Z,7.40
2018-11-29T04:35:11.810Z,7.30
2018-11-29T04:37:40.839Z,7.30
2018-11-29T04:40:11.871Z,7.40
2018-11-29T04:42:40.889Z,7.40
2018-11-29T04:45:11.095Z,7.40
2018-11-29T04:47:40.123Z,7.40
2018-11-29T04:50:09.199Z,7.40
2018-11-29T04:52:38.218Z,7.40
2018-11-29T04:55:08.304Z,7.40
2018-11-29T04:57:37.570Z,7.40
2018-11-29T05:00:11.437Z,7.30
2018-11-29T05:02:40.423Z,7.30
2018-11-29T05:05:09.631Z,7.30
2018-11-29T05:07:38.583Z,7.30
2018-11-29T05:10:09.331Z,7.30
2018-11-29T05:12:38.343Z,7.30
2018-11-29T05:15:10.131Z,7.30
2018-11-29T05:17:39.159Z,7.30
2018-11-29T05:20:08.559Z,7.30
2018-11-29T05:22:37.566Z,7.30
2018-11-29T05:25:07.652Z,7.30
2018-11-29T05:27:36.998Z,7.30
2018-11-29T05:30:09.758Z,7.40
2018-11-29T05:32:38.802Z,7.40
2018-11-29T05:35:09.367Z,7.40
2018-11-29T05:37:38.419Z,7.40
2018-11-29T05:40:09.766Z,7.40
2018-11-29T05:42:39.055Z,7.50
2018-11-29T05:45:09.002Z,7.50
2018-11-29T05:47:38.018Z,7.50
2018-11-29T05:50:09.782Z,7.50
2018-11-29T05:52:38.906Z,7.50
2018-11-29T05:55:09.667Z,7.60
2018-11-29T05:57:38.702Z,7.60
2018-11-29T06:00:14.098Z,7.60
2018-11-29T06:02:43.650Z,7.60
2018-11-29T06:05:14.291Z,7.60
2018-11-29T06:07:43.819Z,7.50
2018-11-29T06:10:13.056Z,7.50
2018-11-29T06:12:42.090Z,7.60
2018-11-29T06:15:11.472Z,7.60
2018-11-29T06:17:40.830Z,7.60
2018-11-29T06:20:11.734Z,7.50
2018-11-29T06:22:40.766Z,7.50
2018-11-29T06:25:10.186Z,7.50
2018-11-29T06:27:39.275Z,7.40
2018-11-29T06:30:13.543Z,7.40
2018-11-29T06:32:42.586Z,7.30
2018-11-29T06:35:11.978Z,7.30
2018-11-29T06:37:41.039Z,7.30
2018-11-29T06:40:13.015Z,7.30
2018-11-29T06:42:42.233Z,7.30
2018-11-29T06:45:13.691Z,7.30
2018-11-29T06:47:42.805Z,7.20
2018-11-29T06:50:13.607Z,7.30
2018-11-29T06:52:43.821Z,7.20
2018-11-29T06:55:15.294Z,7.20
2018-11-29T06:57:44.342Z,7.20
2018-11-29T07:00:20.766Z,7.20
2018-11-29T07:02:49.836Z,7.20
2018-11-29T07:05:18.880Z,7.20
2018-11-29T07:07:47.886Z,7.20
2018-11-29T07:10:16.983Z,7.20
2018-11-29T07:12:45.991Z,7.20
2018-11-29T07:15:15.039Z,7.20
2018-11-29T07:17:44.022Z,7.20
2018-11-29T07:20:14.566Z,7.20
2018-11-29T07:22:43.691Z,7.20
2018-11-29T07:25:12.782Z,7.20
2018-11-29T07:27:41.825Z,7.20
2018-11-29T07:30:13.128Z,7.10
2018-11-29T07:32:42.239Z,7.20
2018-11-29T07:35:12.283Z,7.20
2018-11-29T07:37:41.522Z,7.20
2018-11-29T07:40:14.019Z,7.30
2018-11-29T07:42:43.178Z,7.20
2018-11-29T07:45:14.514Z,7.30
2018-11-29T07:47:43.783Z,7.30
2018-11-29T07:50:17.689Z,7.30
2018-11-29T07:52:46.849Z,7.30
2018-11-29T07:55:17.746Z,7.30
2018-11-29T07:57:47.787Z,7.30
2018-11-29T08:00:17.145Z,7.30
2018-11-29T08:02:46.211Z,7.30
2018-11-29T08:05:15.775Z,7.30
2018-11-29T08:07:47.630Z,7.30
2018-11-29T08:10:17.784Z,7.30
2018-11-29T08:12:46.962Z,7.30
2018-11-29T08:15:17.851Z,7.30
2018-11-29T08:17:46.911Z,7.30
2018-11-29T08:20:16.898Z,7.40
2018-11-29T08:22:46.012Z,7.40
2018-11-29T08:25:15.075Z,7.40
2018-11-29T08:27:44.104Z,7.40
2018-11-29T08:30:14.040Z,7.30
2018-11-29T08:32:43.150Z,7.40
2018-11-29T08:35:14.095Z,7.40
2018-11-29T08:37:44.170Z,7.30
2018-11-29T08:40:16.395Z,7.40
2018-11-29T08:42:45.424Z,7.40
2018-11-29T08:45:14.458Z,7.40
2018-11-29T08:47:43.474Z,7.50
2018-11-29T08:50:13.228Z,7.50
2018-11-29T08:52:43.155Z,7.50
2018-11-29T08:55:14.303Z,7.50
2018-11-29T08:57:43.383Z,7.50
2018-11-29T09:00:13.503Z,7.60
2018-11-29T09:02:42.582Z,7.60
2018-11-29T09:05:12.279Z,7.60
2018-11-29T09:07:41.710Z,7.60
2018-11-29T09:10:20.384Z,7.70
2018-11-29T09:12:49.506Z,7.70
2018-11-29T09:15:18.711Z,7.70
2018-11-29T09:17:48.256Z,7.70
2018-11-29T09:20:19.258Z,7.70
2018-11-29T09:22:48.294Z,7.70
2018-11-29T09:25:18.360Z,7.70
2018-11-29T09:27:47.367Z,7.70
2018-11-29T09:30:18.318Z,7.70
2018-11-29T09:32:48.183Z,7.60
2018-11-29T09:35:17.249Z,7.60
2018-11-29T09:37:46.334Z,7.60
2018-11-29T09:40:18.134Z,7.60
2018-11-29T09:42:47.449Z,7.60
2018-11-29T09:45:18.166Z,7.70
2018-11-29T09:47:48.405Z,7.60
2018-11-29T09:50:17.755Z,7.60
2018-11-29T09:52:46.818Z,7.60
2018-11-29T09:55:16.584Z,7.60
2018-11-29T09:57:46.320Z,7.50
2018-11-29T10:00:27.705Z,7.50
2018-11-29T10:02:58.891Z,7.50
2018-11-29T10:05:27.904Z,7.50
2018-11-29T10:07:56.952Z,7.50
2018-11-29T10:10:26.027Z,7.40
2018-11-29T10:12:55.024Z,7.40
2018-11-29T10:15:24.088Z,7.30
2018-11-29T10:17:53.109Z,7.30
2018-11-29T10:20:22.156Z,7.30
2018-11-29T10:22:51.170Z,7.20
2018-11-29T10:25:20.254Z,7.20
2018-11-29T10:27:50.954Z,7.20
2018-11-29T10:30:22.832Z,7.20
2018-11-29T10:32:51.988Z,7.20
2018-11-29T10:35:21.114Z,7.20
2018-11-29T10:37:50.170Z,7.20
2018-11-29T10:40:19.232Z,7.20
2018-11-29T10:42:48.288Z,7.20
2018-11-29T10:45:18.595Z,7.20
2018-11-29T10:47:52.357Z,7.20
2018-11-29T10:50:18.128Z,7.20
2018-11-29T10:52:47.213Z,7.10
2018-11-29T10:55:17.993Z,7.10
2018-11-29T10:57:47.039Z,7.10
2018-11-29T11:00:23.619Z,7.10
2018-11-29T11:02:58.640Z,7.10
2018-11-29T11:05:27.713Z,7.10
2018-11-29T11:07:56.758Z,7.10
2018-11-29T11:10:25.847Z,7.10
2018-11-29T11:12:54.867Z,7.10
2018-11-29T11:15:23.953Z,7.10
2018-11-29T11:17:52.987Z,7.10
2018-11-29T11:20:22.027Z,7.10
2018-11-29T11:22:51.099Z,7.10
2018-11-29T11:25:20.175Z,7.10
2018-11-29T11:27:49.254Z,7.00
2018-11-29T11:30:19.371Z,7.00
2018-11-29T11:32:49.391Z,7.00
2018-11-29T11:35:18.441Z,6.90
2018-11-29T11:37:47.507Z,6.90
2018-11-29T11:40:17.194Z,6.90
2018-11-29T11:42:46.760Z,6.80
2018-11-29T11:45:17.763Z,6.90
2018-11-29T11:47:46.913Z,6.90
2018-11-29T11:50:20.856Z,6.90
2018-11-29T11:52:50.228Z,6.90
2018-11-29T11:55:19.502Z,7.00
2018-11-29T11:57:48.670Z,7.00
2018-11-29T12:00:34.558Z,7.10
2018-11-29T12:03:07.225Z,7.10
2018-11-29T12:05:36.741Z,7.20
2018-11-29T12:08:06.193Z,7.30
2018-11-29T12:10:35.451Z,7.40
2018-11-29T12:13:04.538Z,7.50
2018-11-29T12:15:33.612Z,7.50
2018-11-29T12:18:02.661Z,7.60
2018-11-29T12:20:31.672Z,7.60
2018-11-29T12:23:00.719Z,7.50
2018-11-29T12:25:29.724Z,7.50
2018-11-29T12:27:58.795Z,7.50
2018-11-29T12:30:30.291Z,7.50
2018-11-29T12:33:02.563Z,7.50
2018-11-29T12:35:31.759Z,7.60
2018-11-29T12:38:00.838Z,7.60
2018-11-29T12:40:29.883Z,7.60
2018-11-29T12:42:58.916Z,7.50
2018-11-29T12:45:27.967Z,7.50
2018-11-29T12:47:57.003Z,7.50
2018-11-29T12:50:26.720Z,7.50
2018-11-29T12:52:55.812Z,7.40
2018-11-29T12:55:25.949Z,7.40
2018-11-29T12:58:05.370Z,7.40
2018-11-29T13:00:24.768Z,7.40
2018-11-29T13:02:56.348Z,7.40
2018-11-29T13:05:26.016Z,7.30
2018-11-29T13:07:55.139Z,7.30
2018-11-29T13:10:25.252Z,7.30
2018-11-29T13:12:54.506Z,7.30
2018-11-29T13:15:25.673Z,7.30
2018-11-29T13:17:55.351Z,7.40
2018-11-29T13:20:24.407Z,7.50
2018-11-29T13:22:53.445Z,7.60
2018-11-29T13:25:23.581Z,7.60
2018-11-29T13:27:52.655Z,7.60
2018-11-29T13:30:22.247Z,7.60
2018-11-29T13:32:52.339Z,7.60
2018-11-29T13:35:22.677Z,7.60
2018-11-29T13:37:53.674Z,7.60
2018-11-29T13:40:22.745Z,7.60
2018-11-29T13:42:51.779Z,7.60
2018-11-29T13:45:20.855Z,7.60
2018-11-29T13:47:49.887Z,7.60
2018-11-29T13:50:18.995Z,7.60
2018-11-29T13:52:48.057Z,7.60
2018-11-29T13:55:17.565Z,7.60
2018-11-29T13:57:47.760Z,7.60
2018-11-29T14:00:23.892Z,7.60
2018-11-29T14:02:55.996Z,7.60
2018-11-29T14:05:25.075Z,7.60
2018-11-29T14:07:54.096Z,7.70
2018-11-29T14:10:24.099Z,7.70
2018-11-29T14:12:54.792Z,7.70
2018-11-29T14:15:24.973Z,7.70
2018-11-29T14:17:53.997Z,7.70
2018-11-29T14:20:23.075Z,7.70
2018-11-29T14:22:52.134Z,7.80
2018-11-29T14:25:21.222Z,7.80
2018-11-29T14:27:51.716Z,7.80
2018-11-29T14:30:21.769Z,7.80
2018-11-29T14:32:51.079Z,7.80
2018-11-29T14:35:20.148Z,7.90
2018-11-29T14:37:49.914Z,7.90
2018-11-29T14:40:21.110Z,7.90
2018-11-29T14:42:50.167Z,7.90
2018-11-29T14:45:23.957Z,7.90
2018-11-29T14:47:53.099Z,8.00
2018-11-29T14:50:36.164Z,8.00
2018-11-29T14:53:05.696Z,8.10
2018-11-29T14:55:34.913Z,8.00
2018-11-29T14:58:03.999Z,8.00
2018-11-29T15:00:33.116Z,8.00
2018-11-29T15:03:03.809Z,8.10
2018-11-29T15:05:32.969Z,8.10
2018-11-29T15:08:01.970Z,8.10
2018-11-29T15:10:31.003Z,8.10
2018-11-29T15:13:00.104Z,8.10
2018-11-29T15:15:29.139Z,8.10
2018-11-29T15:17:58.195Z,8.10
2018-11-29T15:20:31.951Z,8.10
2018-11-29T15:23:00.959Z,8.00
2018-11-29T15:25:29.982Z,8.10
2018-11-29T15:27:59.011Z,8.10
2018-11-29T15:30:28.240Z,8.00
2018-11-29T15:32:57.230Z,8.10
2018-11-29T15:35:26.313Z,8.00
2018-11-29T15:37:55.348Z,7.90
2018-11-29T15:40:24.438Z,7.90
2018-11-29T15:42:53.439Z,7.90
2018-11-29T15:45:24.576Z,7.90
2018-11-29T15:47:53.643Z,7.90
2018-11-29T15:50:22.679Z,7.90
2018-11-29T15:52:51.727Z,7.90
2018-11-29T15:55:21.607Z,7.80
2018-11-29T15:57:52.488Z,7.90
2018-11-29T16:00:29.125Z,7.80
2018-11-29T16:03:00.079Z,7.80
2018-11-29T16:05:29.114Z,7.90
2018-11-29T16:07:58.155Z,7.90
2018-11-29T16:10:27.644Z,8.00
2018-11-29T16:12:56.666Z,8.00
2018-11-29T16:15:25.798Z,8.10
2018-11-29T16:17:54.844Z,8.00
2018-11-29T16:20:25.946Z,8.00
2018-11-29T16:22:55.066Z,8.00
2018-11-29T16:25:24.144Z,8.00
2018-11-29T16:27:53.207Z,8.00
2018-11-29T16:30:33.306Z,8.00
2018-11-29T16:33:11.508Z,8.00
2018-11-29T16:35:40.508Z,8.00
2018-11-29T16:38:09.591Z,8.00
2018-11-29T16:40:38.649Z,8.00
2018-11-29T16:43:08.951Z,8.00
2018-11-29T16:45:37.987Z,8.00
2018-11-29T16:48:07.190Z,8.10
2018-11-29T16:50:37.126Z,8.10
2018-11-29T16:53:06.980Z,8.10
2018-11-29T16:55:39.375Z,8.00
2018-11-29T16:58:09.898Z,8.00
2018-11-29T17:00:38.938Z,8.00
2018-11-29T17:03:07.998Z,7.90
2018-11-29T17:05:37.171Z,7.90
2018-11-29T17:08:06.655Z,7.90
2018-11-29T17:10:36.022Z,7.80
2018-11-29T17:13:08.405Z,7.80
2018-11-29T17:15:37.443Z,7.80
2018-11-29T17:18:07.844Z,7.80
2018-11-29T17:20:36.995Z,7.90
2018-11-29T17:23:07.444Z,7.90
2018-11-29T17:25:36.629Z,7.90
2018-11-29T17:28:06.324Z,7.80
2018-11-29T17:30:35.746Z,7.70
2018-11-29T17:33:05.117Z,7.70
2018-11-29T17:35:34.212Z,7.70
2018-11-29T17:38:03.312Z,7.80
2018-11-29T17:40:34.412Z,7.90
2018-11-29T17:43:03.472Z,7.90
2018-11-29T17:45:32.543Z,7.90
2018-11-29T17:48:03.890Z,7.80
2018-11-29T17:50:34.422Z,7.80
2018-11-29T17:53:03.505Z,7.70
2018-11-29T17:55:32.533Z,7.80
2018-11-29T17:58:02.089Z,7.90
2018-11-29T18:00:32.535Z,8.00
2018-11-29T18:03:01.610Z,8.00
2018-11-29T18:05:30.646Z,8.00
2018-11-29T18:07:59.656Z,8.10
2018-11-29T18:10:30.661Z,8.10
2018-11-29T18:13:03.489Z,8.10
2018-11-29T18:15:33.843Z,8.10
2018-11-29T18:18:02.870Z,8.10
2018-11-29T18:20:31.921Z,8.10
2018-11-29T18:23:00.949Z,8.10
2018-11-29T18:25:29.991Z,8.20
2018-11-29T18:27:59.035Z,8.20
2018-11-29T18:30:28.067Z,8.20
2018-11-29T18:32:57.102Z,8.20
2018-11-29T18:35:26.159Z,8.20
2018-11-29T18:37:55.200Z,8.20
2018-11-29T18:40:24.228Z,8.20
2018-11-29T18:42:56.691Z,8.20
2018-11-29T18:45:25.784Z,8.10
2018-11-29T18:47:55.220Z,8.10
2018-11-29T18:50:25.197Z,8.10
2018-11-29T18:52:54.298Z,8.00
2018-11-29T18:55:24.369Z,8.00
2018-11-29T18:57:54.142Z,7.90
2018-11-29T19:00:25.239Z,7.90
2018-11-29T19:02:56.953Z,7.80
2018-11-29T19:05:23.426Z,7.80
2018-11-29T19:07:52.529Z,7.70
2018-11-29T19:10:21.923Z,7.70
2018-11-29T19:12:52.523Z,7.70
2018-11-29T19:15:21.607Z,7.70
2018-11-29T19:17:56.973Z,7.80
2018-11-29T19:20:26.005Z,7.80
2018-11-29T19:22:55.142Z,7.80
2018-11-29T19:25:24.088Z,7.80
2018-11-29T19:27:53.131Z,7.80
2018-11-29T19:30:27.201Z,7.80
2018-11-29T19:32:59.707Z,7.80
2018-11-29T19:35:28.615Z,7.80
2018-11-29T19:37:57.679Z,7.80
2018-11-29T19:40:26.713Z,7.90
2018-11-29T19:42:55.779Z,7.90
2018-11-29T19:45:24.835Z,7.80
2018-11-29T19:47:53.896Z,7.80
2018-11-29T19:50:22.994Z,7.80
2018-11-29T19:52:55.427Z,7.90
2018-11-29T19:55:27.924Z,7.90
2018-11-29T19:57:56.963Z,7.90
2018-11-29T20:00:32.293Z,7.80
2018-11-29T20:03:01.355Z,7.90
2018-11-29T20:05:30.446Z,7.90
2018-11-29T20:07:59.485Z,7.90
2018-11-29T20:10:28.551Z,8.00
2018-11-29T20:13:02.951Z,7.90
2018-11-29T20:15:31.997Z,7.90
2018-11-29T20:18:01.039Z,7.90
2018-11-29T20:20:30.078Z,7.90
2018-11-29T20:22:59.161Z,7.90
2018-11-29T20:25:28.164Z,7.90
2018-11-29T20:27:57.207Z,7.90
2018-11-29T20:30:26.234Z,7.90
2018-11-29T20:32:55.651Z,7.90
2018-11-29T20:35:24.678Z,7.90
2018-11-29T20:37:54.286Z,7.90
2018-11-29T20:40:27.536Z,7.90
2018-11-29T20:42:57.652Z,7.90
2018-11-29T20:45:33.976Z,7.90
2018-11-29T20:48:10.418Z,7.90
2018-11-29T20:50:39.437Z,7.90
2018-11-29T20:53:09.014Z,7.90
2018-11-29T20:55:38.139Z,7.90
2018-11-29T20:58:08.094Z,7.80
2018-11-29T21:00:37.186Z,7.80
2018-11-29T21:03:07.247Z,7.80
2018-11-29T21:05:37.553Z,7.80
2018-11-29T21:08:07.471Z,7.80
2018-11-29T21:10:36.591Z,7.90
2018-11-29T21:13:06.471Z,7.90
2018-11-29T21:15:37.751Z,7.90
2018-11-29T21:18:08.296Z,7.90
2018-11-29T21:20:37.394Z,7.80
2018-11-29T21:23:08.132Z,7.90
2018-11-29T21:25:37.194Z,7.90
2018-11-29T21:28:07.153Z,7.90
2018-11-29T21:30:36.198Z,7.90
2018-11-29T21:33:05.844Z,7.90
2018-11-29T21:35:34.886Z,7.90
2018-11-29T21:38:19.347Z,7.90
2018-11-29T21:40:52.255Z,7.90
2018-11-29T21:43:21.289Z,7.90
2018-11-29T21:45:50.350Z,7.90
2018-11-29T21:48:19.532Z,8.00
2018-11-29T21:50:48.802Z,7.90
2018-11-29T21:53:18.054Z,7.90
2018-11-29T21:55:47.395Z,7.80
2018-11-29T21:58:16.588Z,7.90
2018-11-29T22:00:45.808Z,7.90
2018-11-29T22:03:15.036Z,7.90
2018-11-29T22:05:44.873Z,7.80
2018-11-29T22:08:14.278Z,7.90
2018-11-29T22:10:43.902Z,7.80
2018-11-29T22:13:13.121Z,7.80
2018-11-29T22:15:48.468Z,7.80
2018-11-29T22:18:22.462Z,7.80
2018-11-29T22:20:54.479Z,7.80
2018-11-29T22:23:23.823Z,7.80
2018-11-29T22:25:54.110Z,7.80
2018-11-29T22:28:23.476Z,7.80
2018-11-29T22:30:52.770Z,7.80
2018-11-29T22:33:22.603Z,7.80
2018-11-29T22:35:51.839Z,7.80
2018-11-29T22:38:22.156Z,7.80
2018-11-29T22:40:51.166Z,7.80
2018-11-29T22:43:20.670Z,7.80
2018-11-29T22:45:50.213Z,7.70
2018-11-29T22:48:19.282Z,7.80
2018-11-29T22:50:48.311Z,7.90
2018-11-29T22:53:17.622Z,7.80
2018-11-29T22:55:46.917Z,7.90
2018-11-29T22:58:15.988Z,7.90
2018-11-29T23:00:51.459Z,7.90
2018-11-29T23:03:20.587Z,7.90
2018-11-29T23:05:49.819Z,7.90
2018-11-29T23:08:18.901Z,7.90
2018-11-29T23:10:49.596Z,7.90
2018-11-29T23:13:18.609Z,8.00
2018-11-29T23:15:47.823Z,7.90
2018-11-29T23:18:17.027Z,7.90
2018-11-29T23:20:46.163Z,8.00
2018-11-29T23:23:15.231Z,8.10
2018-11-29T23:25:44.264Z,8.20
2018-11-29T23:28:13.326Z,8.20
2018-11-29T23:30:42.387Z,8.20
2018-11-29T23:33:11.439Z,8.20
2018-11-29T23:35:40.449Z,8.30
2018-11-29T23:38:09.475Z,8.30
2018-11-29T23:40:38.553Z,8.20
2018-11-29T23:43:07.691Z,8.20
2018-11-29T23:45:37.789Z,8.40
2018-11-29T23:48:06.831Z,8.50
2018-11-29T23:50:36.768Z,8.60
2018-11-29T23:53:06.459Z,8.70
2018-11-29T23:55:35.678Z,8.80
2018-11-29T23:58:04.869Z,9.00
